createdAt,value
2022-09-24T00:01:58.908Z,14.99
2022-09-24T00:05:02.180Z,15.40
2022-09-24T00:08:05.377Z,14.88
2022-09-24T00:11:12.432Z,14.62
2022-09-24T00:14:15.794Z,14.81
2022-09-24T00:17:18.988Z,14.65
2022-09-24T00:20:22.847Z,14.55
2022-09-24T00:23:26.104Z,14.80
2022-09-24T00:26:48.595Z,14.89
2022-09-24T00:29:51.861Z,14.79
2022-09-24T00:32:55.103Z,14.99
2022-09-24T00:36:01.000Z,14.80
2022-09-24T00:39:06.019Z,14.81
2022-09-24T00:42:11.324Z,14.91
2022-09-24T00:45:14.538Z,14.77
2022-09-24T00:48:17.910Z,14.58
2022-09-24T00:51:23.343Z,14.09
2022-09-24T00:54:30.017Z,14.39
2022-09-24T00:57:35.700Z,14.52
2022-09-24T01:00:40.478Z,14.65
2022-09-24T01:03:44.044Z,14.64
2022-09-24T01:06:47.323Z,14.75
2022-09-24T01:09:50.690Z,14.68
2022-09-24T01:13:05.009Z,14.46
2022-09-24T01:16:23.411Z,14.34
2022-09-24T01:20:04.162Z,14.41
2022-09-24T01:23:49.237Z,14.40
2022-09-24T01:27:15.704Z,14.54
2022-09-24T01:30:20.729Z,14.56
2022-09-24T01:33:26.599Z,14.37
2022-09-24T01:36:32.627Z,14.49
2022-09-24T01:39:39.265Z,14.31
2022-09-24T01:42:45.329Z,14.10
2022-09-24T01:45:50.527Z,14.19
2022-09-24T01:48:53.894Z,14.35
2022-09-24T01:52:03.292Z,14.13
2022-09-24T01:55:09.036Z,13.85
2022-09-24T01:58:19.445Z,13.94
2022-09-24T02:01:31.085Z,13.93
2022-09-24T02:04:41.001Z,13.90
2022-09-24T02:07:50.117Z,14.06
2022-09-24T02:10:58.989Z,14.14
2022-09-24T02:14:07.943Z,13.93
2022-09-24T02:17:13.680Z,13.97
2022-09-24T02:20:21.292Z,13.99
2022-09-24T02:23:27.384Z,14.24
2022-09-24T02:26:30.898Z,14.12
2022-09-24T02:29:34.230Z,13.93
2022-09-24T02:32:41.996Z,14.10
2022-09-24T02:35:44.369Z,14.03
2022-09-24T02:38:48.369Z,14.08
2022-09-24T02:41:53.827Z,13.79
2022-09-24T02:44:57.579Z,13.94
2022-09-24T02:48:03.039Z,14.16
2022-09-24T02:51:06.732Z,13.77
2022-09-24T02:54:10.617Z,14.07
2022-09-24T02:57:13.905Z,14.12
2022-09-24T03:00:21.171Z,13.87
2022-09-24T03:03:26.273Z,14.22
2022-09-24T03:06:30.503Z,14.26
2022-09-24T03:09:33.862Z,14.24
2022-09-24T03:12:37.145Z,14.22
2022-09-24T03:15:40.497Z,14.23
2022-09-24T03:18:45.439Z,14.26
2022-09-24T03:21:48.695Z,14.40
2022-09-24T03:24:52.084Z,14.38
2022-09-24T03:27:55.372Z,14.39
2022-09-24T03:31:01.706Z,14.33
2022-09-24T03:34:06.410Z,14.03
2022-09-24T03:37:09.687Z,14.21
2022-09-24T03:40:13.306Z,14.26
2022-09-24T03:43:16.538Z,14.15
2022-09-24T03:46:19.782Z,14.16
2022-09-24T03:49:25.947Z,14.17
2022-09-24T03:52:29.918Z,14.43
2022-09-24T03:55:33.189Z,13.81
2022-09-24T03:58:38.995Z,13.68
2022-09-24T04:01:42.375Z,13.87
2022-09-24T04:04:47.054Z,13.69
2022-09-24T04:07:50.231Z,13.95
2022-09-24T04:10:55.498Z,13.87
2022-09-24T04:13:58.828Z,14.03
2022-09-24T04:17:02.074Z,13.94
2022-09-24T04:20:08.016Z,13.94
2022-09-24T04:23:11.788Z,14.12
2022-09-24T04:26:15.292Z,13.24
2022-09-24T04:29:18.655Z,13.89
2022-09-24T04:32:22.599Z,13.80
2022-09-24T04:35:28.050Z,14.01
2022-09-24T04:38:31.238Z,14.10
2022-09-24T04:41:35.167Z,13.41
2022-09-24T04:44:38.405Z,13.84
2022-09-24T04:47:41.919Z,13.99
2022-09-24T04:50:46.724Z,13.84
2022-09-24T04:53:50.645Z,14.20
2022-09-24T04:56:53.889Z,13.99
2022-09-24T04:59:57.165Z,14.09
2022-09-24T05:03:03.728Z,14.17
2022-09-24T05:06:08.773Z,13.98
2022-09-24T05:09:12.877Z,13.93
2022-09-24T05:12:16.169Z,14.08
2022-09-24T05:15:20.386Z,14.36
2022-09-24T05:18:23.647Z,14.20
2022-09-24T05:21:28.310Z,14.39
2022-09-24T05:24:31.522Z,14.39
2022-09-24T05:27:35.863Z,14.59
2022-09-24T05:30:39.081Z,14.81
2022-09-24T05:33:42.385Z,15.06
2022-09-24T05:36:47.098Z,15.27
2022-09-24T05:39:50.351Z,15.50
2022-09-24T05:42:53.702Z,15.84
2022-09-24T05:45:58.757Z,16.23
2022-09-24T05:49:02.036Z,16.53
2022-09-24T05:52:07.523Z,16.83
2022-09-24T05:55:12.126Z,17.26
2022-09-24T05:58:15.675Z,17.15
2022-09-24T06:01:19.012Z,17.23
2022-09-24T06:04:22.253Z,17.47
2022-09-24T06:07:26.915Z,17.90
2022-09-24T06:10:30.208Z,18.09
2022-09-24T06:13:35.097Z,18.43
2022-09-24T06:16:38.463Z,18.27
2022-09-24T06:19:42.304Z,18.38
2022-09-24T06:22:46.946Z,18.64
2022-09-24T06:25:51.314Z,18.46
2022-09-24T06:28:54.677Z,18.98
2022-09-24T06:31:57.934Z,18.83
2022-09-24T06:35:01.203Z,18.69
2022-09-24T06:38:06.711Z,18.94
2022-09-24T06:41:10.595Z,19.25
2022-09-24T06:44:13.847Z,19.63
2022-09-24T06:47:17.104Z,20.03
2022-09-24T06:50:20.464Z,19.86
2022-09-24T06:53:25.537Z,20.21
2022-09-24T06:56:28.808Z,20.73
2022-09-24T06:59:32.078Z,20.66
2022-09-24T07:02:35.367Z,20.70
2022-09-24T07:05:43.373Z,20.50
2022-09-24T07:08:51.796Z,20.70
2022-09-24T07:11:57.086Z,20.67
2022-09-24T07:15:01.580Z,21.13
2022-09-24T07:18:04.988Z,21.62
2022-09-24T07:21:08.229Z,21.73
2022-09-24T07:24:12.860Z,21.74
2022-09-24T07:27:16.350Z,21.76
2022-09-24T07:30:19.767Z,22.00
2022-09-24T07:33:23.043Z,21.65
2022-09-24T07:36:26.390Z,22.33
2022-09-24T07:39:31.531Z,22.38
2022-09-24T07:42:34.781Z,22.37
2022-09-24T07:45:38.025Z,22.77
2022-09-24T07:48:41.291Z,22.49
2022-09-24T07:51:44.551Z,22.60
2022-09-24T07:54:49.689Z,22.79
2022-09-24T07:57:54.827Z,22.63
2022-09-24T08:00:59.734Z,22.63
2022-09-24T08:04:04.693Z,22.56
2022-09-24T08:07:08.019Z,23.30
2022-09-24T08:10:12.768Z,23.49
2022-09-24T08:13:16.334Z,23.84
2022-09-24T08:16:21.653Z,23.55
2022-09-24T08:19:24.985Z,23.72
2022-09-24T08:22:28.227Z,23.81
2022-09-24T08:25:33.005Z,23.46
2022-09-24T08:28:36.541Z,23.73
2022-09-24T08:31:42.211Z,24.23
2022-09-24T08:34:45.782Z,23.98
2022-09-24T08:37:48.974Z,24.41
2022-09-24T08:41:00.309Z,24.66
2022-09-24T08:44:06.953Z,23.92
2022-09-24T08:47:24.863Z,24.52
2022-09-24T08:50:31.252Z,24.67
2022-09-24T08:53:45.530Z,24.59
2022-09-24T08:56:52.103Z,24.50
2022-09-24T08:59:55.807Z,24.35
2022-09-24T09:03:05.199Z,24.60
2022-09-24T09:06:17.657Z,24.72
2022-09-24T09:09:24.712Z,25.00
2022-09-24T09:12:36.297Z,25.18
2022-09-24T09:15:44.247Z,24.74
2022-09-24T09:18:51.060Z,24.68
2022-09-24T09:21:57.204Z,24.53
2022-09-24T09:25:05.121Z,24.33
2022-09-24T09:28:15.209Z,24.91
2022-09-24T09:31:29.203Z,24.74
2022-09-24T09:34:47.916Z,24.94
2022-09-24T09:37:58.569Z,25.00
2022-09-24T09:41:08.292Z,25.31
2022-09-24T09:44:19.884Z,25.95
2022-09-24T09:47:33.431Z,26.13
2022-09-24T09:50:40.692Z,25.91
2022-09-24T09:53:55.598Z,26.53
2022-09-24T09:56:58.899Z,26.13
2022-09-24T10:00:05.191Z,26.27
2022-09-24T10:03:27.363Z,26.36
2022-09-24T10:06:32.902Z,26.29
2022-09-24T10:09:36.586Z,26.27
2022-09-24T10:12:39.803Z,26.58
2022-09-24T10:15:53.121Z,26.60
2022-09-24T10:18:56.477Z,25.87
2022-09-24T10:22:08.441Z,26.24
2022-09-24T10:25:20.775Z,26.22
2022-09-24T10:28:42.891Z,26.44
2022-09-24T10:31:49.048Z,26.12
2022-09-24T10:35:00.590Z,25.71
2022-09-24T10:38:16.066Z,26.23
2022-09-24T10:41:28.059Z,26.80
2022-09-24T10:44:36.796Z,26.53
2022-09-24T10:47:51.967Z,26.32
2022-09-24T10:51:04.220Z,26.54
2022-09-24T10:54:34.686Z,26.33
2022-09-24T10:57:50.891Z,26.18
2022-09-24T11:01:04.951Z,26.04
2022-09-24T11:04:24.172Z,26.53
2022-09-24T11:07:40.945Z,26.54
2022-09-24T11:11:19.647Z,26.01
2022-09-24T11:14:39.096Z,26.67
2022-09-24T11:17:53.331Z,26.87
2022-09-24T11:21:07.019Z,26.62
2022-09-24T11:24:35.436Z,26.95
2022-09-24T11:27:52.840Z,27.32
2022-09-24T11:31:04.939Z,27.01
2022-09-24T11:34:27.483Z,26.71
2022-09-24T11:37:47.323Z,26.32
2022-09-24T11:41:10.481Z,26.37
2022-09-24T11:44:41.149Z,26.36
2022-09-24T11:48:06.819Z,25.87
2022-09-24T11:51:21.736Z,25.45
2022-09-24T11:54:32.789Z,25.15
2022-09-24T11:57:40.838Z,25.20
2022-09-24T12:00:48.257Z,25.67
2022-09-24T12:03:58.469Z,26.08
2022-09-24T12:07:12.884Z,26.22
2022-09-24T12:10:34.825Z,26.42
2022-09-24T12:13:42.418Z,26.27
2022-09-24T12:16:50.336Z,26.36
2022-09-24T12:20:00.880Z,26.27
2022-09-24T12:23:08.099Z,26.17
2022-09-24T12:26:16.453Z,26.03
2022-09-24T12:29:53.126Z,26.25
2022-09-24T12:33:05.152Z,26.51
2022-09-24T12:36:14.396Z,26.44
2022-09-24T12:39:20.384Z,25.98
2022-09-24T12:42:29.174Z,26.03
2022-09-24T12:45:35.340Z,25.45
2022-09-24T12:48:41.213Z,25.97
2022-09-24T12:51:44.611Z,26.07
2022-09-24T12:54:55.249Z,26.02
2022-09-24T12:58:03.297Z,26.11
2022-09-24T13:01:14.530Z,26.09
2022-09-24T13:04:28.244Z,26.18
2022-09-24T13:07:35.054Z,26.30
2022-09-24T13:10:38.583Z,26.10
2022-09-24T13:13:44.863Z,25.87
2022-09-24T13:16:50.455Z,26.02
2022-09-24T13:19:59.200Z,26.21
2022-09-24T13:23:16.547Z,25.85
2022-09-24T13:26:35.040Z,26.12
2022-09-24T13:29:41.748Z,26.12
2022-09-24T13:32:59.062Z,25.99
2022-09-24T13:36:12.096Z,26.03
2022-09-24T13:39:19.345Z,25.37
2022-09-24T13:42:35.293Z,25.40
2022-09-24T13:45:42.803Z,25.27
2022-09-24T13:48:51.586Z,25.58
2022-09-24T13:52:13.149Z,25.62
2022-09-24T13:55:21.702Z,25.78
2022-09-24T13:58:29.105Z,25.88
2022-09-24T14:01:40.506Z,25.44
2022-09-24T14:04:44.174Z,25.40
2022-09-24T14:07:56.973Z,25.42
2022-09-24T14:11:09.837Z,25.73
2022-09-24T14:14:19.980Z,25.54
2022-09-24T14:17:24.771Z,25.06
2022-09-24T14:20:34.579Z,25.02
2022-09-24T14:23:42.309Z,25.12
2022-09-24T14:26:51.088Z,25.32
2022-09-24T14:29:58.177Z,25.16
2022-09-24T14:33:06.415Z,24.98
2022-09-24T14:36:12.939Z,24.51
2022-09-24T14:39:16.332Z,24.66
2022-09-24T14:42:25.801Z,24.84
2022-09-24T14:45:34.331Z,25.01
2022-09-24T14:48:39.877Z,25.13
2022-09-24T14:51:54.648Z,25.12
2022-09-24T14:55:15.414Z,24.63
2022-09-24T14:58:36.633Z,24.76
2022-09-24T15:01:40.125Z,24.72
2022-09-24T15:04:48.684Z,24.57
2022-09-24T15:07:52.315Z,24.09
2022-09-24T15:10:57.105Z,24.03
2022-09-24T15:14:02.539Z,23.97
2022-09-24T15:17:22.698Z,23.96
2022-09-24T15:20:27.321Z,23.86
2022-09-24T15:23:30.654Z,23.42
2022-09-24T15:26:36.922Z,23.24
2022-09-24T15:29:40.266Z,23.14
2022-09-24T15:32:43.764Z,23.09
2022-09-24T15:35:48.898Z,22.77
2022-09-24T15:38:53.262Z,22.97
2022-09-24T15:41:56.556Z,22.78
2022-09-24T15:45:00.249Z,22.80
2022-09-24T15:48:03.829Z,22.65
2022-09-24T15:51:15.408Z,22.49
2022-09-24T15:54:19.044Z,22.48
2022-09-24T15:57:22.938Z,22.24
2022-09-24T16:00:27.472Z,22.43
2022-09-24T16:03:32.612Z,22.31
2022-09-24T16:06:37.301Z,22.35
2022-09-24T16:09:40.987Z,22.34
2022-09-24T16:12:44.582Z,22.17
2022-09-24T16:15:47.919Z,22.10
2022-09-24T16:18:51.175Z,22.11
2022-09-24T16:21:55.846Z,22.10
2022-09-24T16:24:59.183Z,22.23
2022-09-24T16:28:02.857Z,22.22
2022-09-24T16:31:07.581Z,22.26
2022-09-24T16:34:11.939Z,22.27
2022-09-24T16:37:18.426Z,22.12
2022-09-24T16:40:21.805Z,22.03
2022-09-24T16:43:25.158Z,21.84
2022-09-24T16:46:28.656Z,21.85
2022-09-24T16:49:31.974Z,21.82
2022-09-24T16:52:36.533Z,21.60
2022-09-24T16:55:39.779Z,21.68
2022-09-24T16:58:44.349Z,21.32
2022-09-24T17:01:47.772Z,21.38
2022-09-24T17:04:53.594Z,21.46
2022-09-24T17:07:58.231Z,21.50
2022-09-24T17:11:00.778Z,21.45
2022-09-24T17:14:04.505Z,21.44
2022-09-24T17:17:08.460Z,21.34
2022-09-24T17:20:12.433Z,21.33
2022-09-24T17:23:17.088Z,21.30
2022-09-24T17:26:22.589Z,21.33
2022-09-24T17:29:31.125Z,21.40
2022-09-24T17:32:34.897Z,21.41
2022-09-24T17:35:38.143Z,21.23
2022-09-24T17:38:43.685Z,21.22
2022-09-24T17:41:46.978Z,21.11
2022-09-24T17:44:50.218Z,20.93
2022-09-24T17:48:01.137Z,20.95
2022-09-24T17:51:06.806Z,21.02
2022-09-24T17:54:14.565Z,21.00
2022-09-24T17:57:17.785Z,21.00
2022-09-24T18:00:21.064Z,20.97
2022-09-24T18:03:24.324Z,20.99
2022-09-24T18:06:32.947Z,20.91
2022-09-24T18:09:38.054Z,20.93
2022-09-24T18:12:41.330Z,20.89
2022-09-24T18:15:44.891Z,20.70
2022-09-24T18:18:50.333Z,20.62
2022-09-24T18:21:53.567Z,20.74
2022-09-24T18:25:01.796Z,20.77
2022-09-24T18:28:05.039Z,20.50
2022-09-24T18:31:09.562Z,20.49
2022-09-24T18:34:15.205Z,20.22
2022-09-24T18:37:18.579Z,20.20
2022-09-24T18:40:23.359Z,19.87
2022-09-24T18:43:26.958Z,19.84
2022-09-24T18:46:32.785Z,19.31
2022-09-24T18:49:37.388Z,19.47
2022-09-24T18:52:40.750Z,18.79
2022-09-24T18:55:45.451Z,19.21
2022-09-24T18:58:48.826Z,19.36
2022-09-24T19:01:52.407Z,19.24
2022-09-24T19:04:55.775Z,19.25
2022-09-24T19:07:59.249Z,19.32
2022-09-24T19:11:09.381Z,19.60
2022-09-24T19:14:15.162Z,19.32
2022-09-24T19:17:19.017Z,19.59
2022-09-24T19:20:23.642Z,19.26
2022-09-24T19:23:26.934Z,19.04
2022-09-24T19:26:33.606Z,18.77
2022-09-24T19:29:36.952Z,18.84
2022-09-24T19:32:40.274Z,18.76
2022-09-24T19:35:45.902Z,18.43
2022-09-24T19:38:49.838Z,18.29
2022-09-24T19:41:54.534Z,18.16
2022-09-24T19:44:58.992Z,18.19
2022-09-24T19:48:02.538Z,18.14
2022-09-24T19:51:09.191Z,18.19
2022-09-24T19:54:12.845Z,17.89
2022-09-24T19:57:18.236Z,17.84
2022-09-24T20:00:23.738Z,17.39
2022-09-24T20:03:27.014Z,17.97
2022-09-24T20:06:31.387Z,18.03
2022-09-24T20:09:34.742Z,17.67
2022-09-24T20:12:41.755Z,17.85
2022-09-24T20:15:45.063Z,17.81
2022-09-24T20:18:48.514Z,17.99
2022-09-24T20:21:53.221Z,18.02
2022-09-24T20:24:56.473Z,17.98
2022-09-24T20:28:00.156Z,17.95
2022-09-24T20:31:10.372Z,17.92
2022-09-24T20:34:13.652Z,17.90
2022-09-24T20:37:17.004Z,17.54
2022-09-24T20:40:20.374Z,17.81
2022-09-24T20:43:25.337Z,18.14
2022-09-24T20:46:29.493Z,18.23
2022-09-24T20:49:33.414Z,18.24
2022-09-24T20:52:36.689Z,18.39
2022-09-24T20:55:40.349Z,18.25
2022-09-24T20:58:45.969Z,18.09
2022-09-24T21:01:49.615Z,17.99
2022-09-24T21:04:53.169Z,18.24
2022-09-24T21:07:56.365Z,18.22
2022-09-24T21:11:02.477Z,18.16
2022-09-24T21:14:10.449Z,18.17
2022-09-24T21:17:13.773Z,17.67
2022-09-24T21:20:17.071Z,18.14
2022-09-24T21:23:21.668Z,18.27
2022-09-24T21:26:27.522Z,18.28
2022-09-24T21:29:32.806Z,18.21
2022-09-24T21:32:38.863Z,18.25
2022-09-24T21:35:42.099Z,18.25
2022-09-24T21:38:46.099Z,18.20
2022-09-24T21:41:55.037Z,18.10
2022-09-24T21:45:01.199Z,17.99
2022-09-24T21:48:04.502Z,17.99
2022-09-24T21:51:10.101Z,17.80
2022-09-24T21:54:16.384Z,17.81
2022-09-24T21:57:19.580Z,17.84
2022-09-24T22:00:24.428Z,17.74
2022-09-24T22:03:27.903Z,17.54
2022-09-24T22:06:32.856Z,17.47
2022-09-24T22:09:36.196Z,16.91
2022-09-24T22:12:39.803Z,17.08
2022-09-24T22:15:46.162Z,17.22
2022-09-24T22:18:49.365Z,16.79
2022-09-24T22:21:53.014Z,16.89
2022-09-24T22:24:56.285Z,16.62
2022-09-24T22:27:59.584Z,16.46
2022-09-24T22:31:08.709Z,16.43
2022-09-24T22:34:29.769Z,16.70
2022-09-24T22:37:32.957Z,16.82
2022-09-24T22:40:36.602Z,16.92
2022-09-24T22:43:40.603Z,17.02
2022-09-24T22:46:45.301Z,17.01
2022-09-24T22:49:48.578Z,16.99
2022-09-24T22:52:52.152Z,17.10
2022-09-24T22:56:04.696Z,17.13
2022-09-24T22:59:08.259Z,17.21
2022-09-24T23:02:13.460Z,17.09
2022-09-24T23:05:17.096Z,16.53
2022-09-24T23:08:20.405Z,16.16
2022-09-24T23:11:25.151Z,16.38
2022-09-24T23:14:28.513Z,16.70
2022-09-24T23:17:33.145Z,16.95
2022-09-24T23:20:36.461Z,17.10
2022-09-24T23:23:40.579Z,17.13
2022-09-24T23:26:44.321Z,16.99
2022-09-24T23:29:47.680Z,16.82
2022-09-24T23:32:52.345Z,16.76
2022-09-24T23:35:55.806Z,16.86
2022-09-24T23:38:59.820Z,16.70
2022-09-24T23:42:03.171Z,16.70
2022-09-24T23:45:07.293Z,16.72
2022-09-24T23:48:12.116Z,16.82
2022-09-24T23:51:15.423Z,16.65
2022-09-24T23:54:18.725Z,16.67
2022-09-24T23:57:21.971Z,16.67
